Jackson-Evers International Airport

Airport
ICAO code: 
KJAN
Summary
ICAO Region: 
NAM
Territory: 
Location: 
Jackson, Mississippi,
Coordinates: 
Aerial View: 
32° 18' 36.355" N, 90° 4' 30.53" W
Airport LOS: 
Parallel Runway Operation
Metar
Observation
KJAN 020854Z AUTO 16004KT 10SM CLR 11/09 A3012 RMK AO2 SLP197 T01110094 58005
Station
Jackson, Jackson International Airport
Date/Time
2021-12-02 08:54:00
Wind direction
160°
Wind speed
04 kts
Lowest cloud amount
n/a
Temperature
11.1°C
Dew point
9.4°C
Humidity
89%
Weather condition
n/a

Description

Jackson-Evers International Airport is a public-use, joint civil-military (ANG) airport located 9 km east of the central business district of Jackson, Mississippi.

Climatology

Humid “subtropical” climate (Köppen climate classification Cfa) - characterized by hot, humid summers and cool winters. Significant amounts of precipitation occur in all seasons in most areas. Winter rainfall (and sometimes snowfall) is associated with large storms that the westerlies steer from west to east. Most summer rainfall occurs during thunderstorms and occasional tropical storms (hurricanes).

Runways

Designator Length Width Surface Rops
16L/34R 2591 46 ASP Yes/Yes
16R/34L 2591 46 ASP Yes/Yes
Airport map: 
Aerial View: 

SKYbrary Partners:

Safety knowledge contributed by: